Time;durP1;ratioP1;P1;durP2;ratioP2;P2;SDS_P1;SDS_P2;PMS_P1;PMS_P2;Temp;Humidity;BMP_temperature;BMP_pressure;BME280_temperature;BME280_humidity;BME280_pressure;Samples;Min_cycle;Max_cycle;Signal;HPM_P1;HPM_P2
2021/04/03 00:00:54;;;;;;;0.55;0.55;;;3.40;99.90;;;;;;6276032;22;20182;-89
2021/04/03 00:03:24;;;;;;;0.57;0.57;;;3.50;99.90;;;;;;6289954;22;20250;-87
2021/04/03 00:05:51;;;;;;;0.60;0.60;;;3.20;99.90;;;;;;6288362;22;20163;-85
2021/04/03 00:08:18;;;;;;;0.57;0.57;;;2.70;99.90;;;;;;6275609;22;20207;-82
2021/04/03 00:10:46;;;;;;;0.60;0.60;;;3.30;99.90;;;;;;6271950;22;20175;-82
2021/04/03 00:13:13;;;;;;;0.60;0.60;;;3.40;99.90;;;;;;6271170;22;20246;-82
2021/04/03 00:15:40;;;;;;;0.60;0.60;;;3.40;99.90;;;;;;6273302;22;20167;-82
2021/04/03 00:18:06;;;;;;;0.60;0.60;;;3.20;99.90;;;;;;6274025;22;20183;-83
2021/04/03 00:20:35;;;;;;;0.60;0.60;;;3.30;99.90;;;;;;6273058;22;20198;-82
2021/04/03 00:23:02;;;;;;;0.60;0.60;;;3.30;99.90;;;;;;6277445;22;20203;-83
2021/04/03 00:25:29;;;;;;;0.60;0.60;;;3.30;99.90;;;;;;6282621;22;20179;-82
2021/04/03 00:27:55;;;;;;;0.60;0.60;;;3.20;99.90;;;;;;6277062;22;20210;-84
2021/04/03 00:30:22;;;;;;;0.60;0.60;;;3.20;99.90;;;;;;6273909;22;20624;-83
2021/04/03 00:32:51;;;;;;;0.60;0.60;;;3.20;99.90;;;;;;6279582;22;20193;-85
2021/04/03 00:35:20;;;;;;;0.60;0.60;;;3.60;99.90;;;;;;6279022;22;20175;-85
2021/04/03 00:37:48;;;;;;;0.60;0.60;;;3.10;99.90;;;;;;6278634;22;20185;-85
2021/04/03 00:40:19;;;;;;;0.60;0.60;;;3.10;99.90;;;;;;6280364;22;20174;-85
2021/04/03 00:42:46;;;;;;;0.50;0.50;;;3.10;99.90;;;;;;6272975;22;20194;-84
2021/04/03 00:45:14;;;;;;;0.60;0.60;;;3.10;99.90;;;;;;6272620;22;20171;-85
2021/04/03 00:47:40;;;;;;;0.50;0.50;;;3.10;99.90;;;;;;6272732;22;20175;-87
2021/04/03 00:50:08;;;;;;;0.50;0.50;;;3.10;99.90;;;;;;6272829;22;20175;-87
2021/04/03 00:52:35;;;;;;;0.60;0.60;;;3.10;99.90;;;;;;6272923;22;20202;-88
2021/04/03 00:55:03;;;;;;;0.60;0.60;;;3.10;99.90;;;;;;6272582;22;20171;-85
2021/04/03 00:57:29;;;;;;;0.60;0.60;;;3.00;99.90;;;;;;6273051;22;20179;-86
2021/04/03 00:59:58;;;;;;;0.60;0.60;;;3.00;99.90;;;;;;6274759;22;20245;-87
2021/04/03 01:02:24;;;;;;;0.60;0.60;;;3.00;99.90;;;;;;6274483;22;20191;-86
2021/04/03 01:04:53;;;;;;;0.60;0.60;;;2.90;99.90;;;;;;6278106;22;20183;-86
2021/04/03 01:07:19;;;;;;;0.52;0.52;;;2.90;99.90;;;;;;6273253;22;20182;-86
2021/04/03 01:09:46;;;;;;;0.60;0.60;;;3.00;99.90;;;;;;6274957;22;20178;-84
2021/04/03 01:12:25;;;;;;;0.50;0.50;;;3.00;99.90;;;;;;6272574;22;20252;-85
2021/04/03 01:15:04;;;;;;;0.60;0.60;;;2.70;99.90;;;;;;6272209;22;20167;-85
2021/04/03 01:17:40;;;;;;;0.60;0.60;;;2.80;99.90;;;;;;6271994;22;20250;-84
2021/04/03 01:20:22;;;;;;;0.60;0.60;;;2.80;99.90;;;;;;6271818;22;20167;-85
2021/04/03 01:23:10;;;;;;;0.57;0.57;;;2.70;99.90;;;;;;6270906;22;20182;-84
2021/04/03 01:25:49;;;;;;;0.50;0.50;;;2.70;99.90;;;;;;6271619;22;20191;-85
2021/04/03 01:28:35;;;;;;;0.50;0.50;;;2.10;99.90;;;;;;6271389;22;20386;-85
2021/04/03 01:31:03;;;;;;;0.60;0.60;;;2.60;99.90;;;;;;6271517;22;20159;-85
2021/04/03 01:33:32;;;;;;;0.60;0.60;;;2.60;99.90;;;;;;6271301;22;20178;-85
2021/04/03 01:36:02;;;;;;;0.60;0.60;;;2.60;99.90;;;;;;6251946;22;20188;-86
2021/04/03 01:38:32;;;;;;;0.60;0.60;;;2.50;99.90;;;;;;6269267;22;20210;-86
2021/04/03 01:41:00;;;;;;;0.57;0.57;;;2.50;99.90;;;;;;6269764;22;20175;-85
2021/04/03 01:43:30;;;;;;;0.60;0.60;;;2.60;99.90;;;;;;6270610;22;20178;-85
2021/04/03 01:45:57;;;;;;;0.52;0.52;;;2.60;99.90;;;;;;6270445;22;20663;-86
2021/04/03 01:48:25;;;;;;;0.60;0.60;;;2.60;99.90;;;;;;6270253;22;20205;-86
2021/04/03 01:50:52;;;;;;;0.60;0.60;;;2.50;99.90;;;;;;6269576;22;20206;-85
2021/04/03 01:53:19;;;;;;;0.60;0.60;;;2.50;99.90;;;;;;6270172;22;20190;-85
2021/04/03 01:55:46;;;;;;;0.50;0.50;;;2.50;99.90;;;;;;6270233;22;20399;-86
2021/04/03 01:58:13;;;;;;;0.50;0.50;;;2.50;99.90;;;;;;6270518;22;20183;-85
2021/04/03 02:00:41;;;;;;;0.60;0.60;;;2.50;99.90;;;;;;6270034;22;20182;-85
2021/04/03 02:03:09;;;;;;;0.57;0.57;;;2.50;99.90;;;;;;6270128;22;20199;-85
2021/04/03 02:05:38;;;;;;;0.60;0.60;;;2.50;99.90;;;;;;6269178;22;20175;-85
2021/04/03 02:08:06;;;;;;;0.60;0.60;;;2.40;99.90;;;;;;6270720;22;20185;-85
2021/04/03 02:10:33;;;;;;;0.50;0.50;;;2.40;99.90;;;;;;6269961;22;20631;-85
2021/04/03 02:13:01;;;;;;;0.50;0.50;;;2.40;99.90;;;;;;6269986;22;20238;-85
2021/04/03 02:15:28;;;;;;;0.60;0.60;;;2.30;99.90;;;;;;6270011;22;20175;-85
2021/04/03 02:17:56;;;;;;;0.60;0.60;;;2.40;99.90;;;;;;6270457;22;20174;-86
2021/04/03 02:20:25;;;;;;;0.50;0.50;;;2.30;99.90;;;;;;6269751;22;20186;-85
2021/04/03 02:22:52;;;;;;;0.50;0.50;;;2.30;99.90;;;;;;6270343;22;20206;-85
2021/04/03 02:25:18;;;;;;;0.60;0.60;;;2.30;99.90;;;;;;6271123;22;20183;-85
2021/04/03 02:27:45;;;;;;;0.60;0.60;;;2.20;99.90;;;;;;6272673;22;20189;-85
2021/04/03 02:30:15;;;;;;;0.60;0.60;;;2.30;99.90;;;;;;6272359;22;20478;-85
2021/04/03 02:32:44;;;;;;;0.60;0.60;;;2.30;99.90;;;;;;6272717;22;20174;-85
2021/04/03 02:35:11;;;;;;;0.60;0.60;;;2.30;99.90;;;;;;6270174;22;20186;-85
2021/04/03 02:37:38;;;;;;;0.52;0.52;;;2.30;99.90;;;;;;6272542;22;20645;-85
2021/04/03 02:40:09;;;;;;;0.60;0.60;;;2.30;99.90;;;;;;6272100;22;20190;-85
2021/04/03 02:42:39;;;;;;;0.50;0.50;;;2.20;99.90;;;;;;6272326;22;20236;-85
2021/04/03 02:45:09;;;;;;;0.60;0.60;;;2.20;99.90;;;;;;6269114;22;20203;-86
2021/04/03 02:47:41;;;;;;;0.55;0.55;;;2.20;99.90;;;;;;6271881;22;20189;-85
2021/04/03 02:50:13;;;;;;;0.60;0.60;;;2.20;99.90;;;;;;6270730;22;20174;-85
2021/04/03 02:52:40;;;;;;;0.60;0.60;;;2.20;99.90;;;;;;6272848;22;20222;-85
2021/04/03 02:55:09;;;;;;;0.50;0.50;;;2.20;99.90;;;;;;6271092;22;20171;-82
2021/04/03 02:57:39;;;;;;;0.60;0.60;;;2.20;99.90;;;;;;6271815;22;20179;-83
2021/04/03 03:00:07;;;;;;;0.60;0.60;;;2.20;99.90;;;;;;6271444;22;20535;-83
2021/04/03 03:02:34;;;;;;;0.60;0.60;;;2.20;99.90;;;;;;6272014;22;20289;-83
2021/04/03 03:05:03;;;;;;;0.60;0.60;;;2.20;99.90;;;;;;6271134;22;20182;-83
2021/04/03 03:07:33;;;;;;;0.50;0.50;;;2.20;99.90;;;;;;6271236;22;20503;-84
2021/04/03 03:10:00;;;;;;;0.60;0.60;;;2.10;99.90;;;;;;6271143;22;20661;-84
2021/04/03 03:12:29;;;;;;;0.60;0.60;;;2.10;99.90;;;;;;6271641;22;20199;-84
2021/04/03 03:14:59;;;;;;;0.60;0.60;;;2.10;99.90;;;;;;6271373;22;20182;-84
2021/04/03 03:17:26;;;;;;;0.60;0.60;;;2.10;99.90;;;;;;6272143;22;20572;-83
2021/04/03 03:19:53;;;;;;;0.52;0.52;;;2.10;99.90;;;;;;6271702;22;20178;-84
2021/04/03 03:22:20;;;;;;;0.60;0.60;;;1.80;99.90;;;;;;6270777;22;20229;-84
2021/04/03 03:24:46;;;;;;;0.50;0.50;;;2.00;99.90;;;;;;6271577;22;20181;-83
2021/04/03 03:27:13;;;;;;;0.50;0.50;;;1.90;99.90;;;;;;6271687;22;20179;-83
2021/04/03 03:29:42;;;;;;;0.50;0.50;;;1.90;99.90;;;;;;6271047;22;20645;-83
2021/04/03 03:32:08;;;;;;;0.57;0.57;;;1.90;99.90;;;;;;6270969;22;20692;-83
2021/04/03 03:34:34;;;;;;;0.60;0.60;;;1.90;99.90;;;;;;6271320;22;20241;-83
2021/04/03 03:37:01;;;;;;;0.50;0.50;;;1.90;99.90;;;;;;6269819;22;20182;-83
2021/04/03 03:39:28;;;;;;;0.60;0.60;;;1.90;99.90;;;;;;6271419;22;20175;-83
2021/04/03 03:41:57;;;;;;;0.60;0.60;;;1.90;99.90;;;;;;6270720;22;20495;-83
2021/04/03 03:44:25;;;;;;;0.50;0.50;;;1.80;99.90;;;;;;6271474;22;20233;-83
2021/04/03 03:46:52;;;;;;;0.50;0.50;;;1.80;99.90;;;;;;6270728;22;20179;-83
2021/04/03 03:49:18;;;;;;;0.60;0.60;;;2.00;99.90;;;;;;6271585;22;20237;-84
2021/04/03 03:51:44;;;;;;;0.60;0.60;;;1.80;99.90;;;;;;6270229;22;20191;-83
2021/04/03 03:54:11;;;;;;;0.60;0.60;;;1.80;99.90;;;;;;6271092;22;20183;-83
2021/04/03 03:56:37;;;;;;;0.60;0.60;;;1.80;99.90;;;;;;6270418;22;20671;-83
2021/04/03 03:59:04;;;;;;;0.60;0.60;;;1.80;99.90;;;;;;6270971;22;20190;-83
2021/04/03 04:01:30;;;;;;;0.60;0.60;;;1.80;99.90;;;;;;6270109;22;20191;-83
2021/04/03 04:03:57;;;;;;;0.60;0.60;;;1.70;99.90;;;;;;6270179;22;20179;-83
2021/04/03 04:06:23;;;;;;;0.60;0.60;;;1.70;99.90;;;;;;6269677;22;20179;-83
2021/04/03 04:08:50;;;;;;;0.60;0.60;;;1.70;99.90;;;;;;6270812;22;20193;-83
2021/04/03 04:11:16;;;;;;;0.60;0.60;;;1.60;99.90;;;;;;6270861;22;20289;-83
2021/04/03 04:13:42;;;;;;;0.57;0.57;;;1.60;99.90;;;;;;6270784;22;20183;-82
2021/04/03 04:16:08;;;;;;;0.60;0.60;;;1.60;99.90;;;;;;6270613;22;20233;-82
2021/04/03 04:18:35;;;;;;;0.60;0.60;;;1.60;99.90;;;;;;6271127;22;20175;-82
2021/04/03 04:21:02;;;;;;;0.60;0.60;;;1.50;99.90;;;;;;6269714;22;20527;-82
2021/04/03 04:23:28;;;;;;;0.60;0.60;;;2.40;99.90;;;;;;6271192;22;20254;-84
2021/04/03 04:25:55;;;;;;;0.60;0.60;;;1.50;99.90;;;;;;6269926;22;20558;-84
2021/04/03 04:28:21;;;;;;;0.52;0.52;;;1.40;99.90;;;;;;6270934;22;20202;-85
2021/04/03 04:30:47;;;;;;;0.60;0.60;;;1.40;99.90;;;;;;6270248;22;20182;-84
2021/04/03 04:33:13;;;;;;;0.50;0.50;;;1.30;99.90;;;;;;6270832;22;20225;-84
2021/04/03 04:35:39;;;;;;;0.57;0.57;;;1.30;99.90;;;;;;6267524;22;20172;-85
2021/04/03 04:38:07;;;;;;;0.60;0.60;;;1.30;99.90;;;;;;6270029;22;20565;-86
2021/04/03 04:40:33;;;;;;;0.60;0.60;;;1.30;99.90;;;;;;6270529;22;20175;-85
2021/04/03 04:42:59;;;;;;;0.52;0.52;;;1.40;99.90;;;;;;6271163;22;20210;-84
2021/04/03 04:45:26;;;;;;;0.60;0.60;;;1.30;99.90;;;;;;6271383;22;20190;-85
2021/04/03 04:47:52;;;;;;;0.60;0.60;;;1.20;99.90;;;;;;6270427;22;20179;-85
2021/04/03 04:50:18;;;;;;;0.60;0.60;;;1.20;99.90;;;;;;6270254;22;20179;-85
2021/04/03 04:52:45;;;;;;;0.60;0.60;;;1.20;99.90;;;;;;6271075;22;20186;-86
2021/04/03 04:55:13;;;;;;;0.60;0.60;;;1.20;99.90;;;;;;6270819;22;20177;-84
2021/04/03 04:57:39;;;;;;;0.60;0.60;;;1.20;99.90;;;;;;6270667;22;20183;-85
2021/04/03 05:00:07;;;;;;;0.60;0.60;;;1.20;99.90;;;;;;6270651;22;20619;-85
2021/04/03 05:02:33;;;;;;;0.60;0.60;;;1.20;99.90;;;;;;6270965;22;20524;-85
2021/04/03 05:04:59;;;;;;;0.60;0.60;;;1.20;99.90;;;;;;6269613;22;20624;-85
2021/04/03 05:07:25;;;;;;;0.60;0.60;;;1.10;99.90;;;;;;6270182;22;20183;-84
2021/04/03 05:09:51;;;;;;;0.50;0.50;;;1.20;99.90;;;;;;6270311;22;20174;-85
2021/04/03 05:12:19;;;;;;;0.60;0.60;;;1.10;99.90;;;;;;6270503;22;20199;-86
2021/04/03 05:14:49;;;;;;;0.52;0.52;;;1.90;99.90;;;;;;6271104;22;20179;-86
2021/04/03 05:17:16;;;;;;;0.55;0.55;;;1.00;99.90;;;;;;6270946;22;20640;-86
2021/04/03 05:19:42;;;;;;;0.60;0.60;;;1.00;99.90;;;;;;6270912;22;20229;-85
2021/04/03 05:22:08;;;;;;;0.60;0.60;;;2.90;99.90;;;;;;6269221;22;20202;-86
2021/04/03 05:24:35;;;;;;;0.60;0.60;;;0.90;99.90;;;;;;6270171;22;20253;-86
2021/04/03 05:27:01;;;;;;;0.60;0.60;;;0.90;99.90;;;;;;6270547;22;20187;-86
2021/04/03 05:29:28;;;;;;;0.60;0.60;;;1.00;99.90;;;;;;6270335;22;20372;-86
2021/04/03 05:31:55;;;;;;;0.60;0.60;;;0.80;99.90;;;;;;6269738;22;20556;-84
2021/04/03 05:34:21;;;;;;;0.60;0.60;;;1.00;99.90;;;;;;6270418;22;20173;-84
2021/04/03 05:36:47;;;;;;;0.60;0.60;;;1.00;99.90;;;;;;6269078;22;20185;-85
2021/04/03 05:39:14;;;;;;;0.55;0.55;;;1.00;99.90;;;;;;6269736;22;20258;-84
2021/04/03 05:41:40;;;;;;;0.60;0.60;;;1.10;99.90;;;;;;6269359;22;20547;-84
2021/04/03 05:44:10;;;;;;;0.60;0.60;;;1.20;99.90;;;;;;6270325;22;20187;-85
2021/04/03 05:46:39;;;;;;;0.60;0.60;;;1.20;99.90;;;;;;6270241;22;20189;-85
2021/04/03 05:49:06;;;;;;;0.60;0.60;;;1.30;99.90;;;;;;6270119;22;20175;-83
2021/04/03 05:51:32;;;;;;;0.60;0.60;;;1.40;99.90;;;;;;6268836;22;20195;-84
2021/04/03 05:54:01;;;;;;;0.60;0.60;;;1.50;99.90;;;;;;6270130;22;20248;-84
2021/04/03 05:56:28;;;;;;;0.60;0.60;;;1.60;99.90;;;;;;6269270;22;20182;-85
2021/04/03 05:58:54;;;;;;;0.60;0.60;;;2.30;99.90;;;;;;6269844;22;20237;-84
2021/04/03 06:01:20;;;;;;;0.60;0.60;;;4.60;99.90;;;;;;6269465;22;20174;-84
2021/04/03 06:03:48;;;;;;;0.57;0.57;;;6.40;99.90;;;;;;6269380;22;20658;-87
2021/04/03 06:06:14;;;;;;;0.55;0.55;;;7.30;99.90;;;;;;6265935;22;20174;-86
2021/04/03 06:08:41;;;;;;;0.60;0.60;;;7.40;99.90;;;;;;6271613;22;20175;-85
2021/04/03 06:11:16;;;;;;;0.60;0.60;;;8.20;99.90;;;;;;6271474;22;20202;-86
2021/04/03 06:14:02;;;;;;;0.60;0.60;;;8.00;99.90;;;;;;6270122;22;20769;-85
2021/04/03 06:16:30;;;;;;;0.50;0.50;;;7.50;99.90;;;;;;6270462;22;20159;-86
2021/04/03 06:19:14;;;;;;;0.60;0.60;;;6.40;99.90;;;;;;6269915;22;20179;-85
2021/04/03 06:21:44;;;;;;;0.60;0.60;;;5.80;99.90;;;;;;6269742;22;20211;-85
2021/04/03 06:24:19;;;;;;;0.60;0.60;;;6.50;99.90;;;;;;6270620;22;20183;-84
2021/04/03 06:26:57;;;;;;;0.60;0.60;;;4.50;99.90;;;;;;6269788;22;20178;-85
2021/04/03 06:29:46;;;;;;;0.57;0.57;;;3.90;99.90;;;;;;6269716;22;20651;-85
2021/04/03 06:32:23;;;;;;;0.60;0.60;;;3.70;99.90;;;;;;6260921;22;20286;-85
2021/04/03 06:34:53;;;;;;;0.60;0.60;;;3.50;99.90;;;;;;6269942;22;20183;-85
2021/04/03 06:37:25;;;;;;;0.52;0.52;;;3.40;99.90;;;;;;6269831;22;20262;-85
2021/04/03 06:39:54;;;;;;;0.60;0.60;;;3.30;99.90;;;;;;6269958;22;20164;-85
2021/04/03 06:42:43;;;;;;;0.60;0.60;;;4.90;99.90;;;;;;6269969;22;20278;-84
2021/04/03 06:45:34;;;;;;;0.60;0.60;;;3.40;99.90;;;;;;6269621;22;20654;-85
2021/04/03 06:48:02;;;;;;;0.57;0.57;;;3.40;99.90;;;;;;6232563;22;20175;-84
2021/04/03 06:50:34;;;;;;;0.60;0.60;;;3.50;99.90;;;;;;6269551;22;20262;-86
2021/04/03 06:53:05;;;;;;;0.60;0.60;;;3.40;99.90;;;;;;6269935;22;20183;-85
2021/04/03 06:55:32;;;;;;;0.60;0.60;;;3.40;99.90;;;;;;6269187;22;20243;-85
2021/04/03 06:58:01;;;;;;;0.60;0.60;;;3.60;99.90;;;;;;6269658;22;20696;-85
2021/04/03 07:00:30;;;;;;;0.60;0.60;;;3.60;99.90;;;;;;6269522;22;20180;-86
2021/04/03 07:02:58;;;;;;;0.60;0.60;;;3.70;99.90;;;;;;6270221;22;20639;-86
2021/04/03 07:05:27;;;;;;;0.60;0.60;;;5.80;99.90;;;;;;6266739;22;20631;-86
2021/04/03 07:07:56;;;;;;;0.60;0.60;;;3.80;99.90;;;;;;6269691;22;20172;-84
2021/04/03 07:10:22;;;;;;;0.50;0.50;;;3.80;99.90;;;;;;6270681;22;20552;-86
2021/04/03 07:12:50;;;;;;;0.60;0.60;;;4.00;99.90;;;;;;6271545;22;20226;-86
2021/04/03 07:15:17;;;;;;;0.50;0.50;;;6.20;99.90;;;;;;6271132;22;20671;-84
2021/04/03 07:17:45;;;;;;;0.60;0.60;;;4.10;99.90;;;;;;6271662;22;20229;-84
2021/04/03 07:20:13;;;;;;;0.60;0.60;;;4.20;99.90;;;;;;6270050;22;20175;-85
2021/04/03 07:22:43;;;;;;;0.60;0.60;;;4.30;99.90;;;;;;6272135;22;20191;-84
2021/04/03 07:25:12;;;;;;;0.50;0.50;;;4.30;99.90;;;;;;6271258;22;20662;-84
2021/04/03 07:27:41;;;;;;;0.60;0.60;;;4.40;99.90;;;;;;6272162;22;20179;-84
2021/04/03 07:30:08;;;;;;;0.60;0.60;;;4.50;99.90;;;;;;6271446;22;20622;-84
2021/04/03 07:32:38;;;;;;;0.60;0.60;;;4.50;99.90;;;;;;6272011;22;20179;-84
2021/04/03 07:35:15;;;;;;;0.60;0.60;;;4.60;99.90;;;;;;6269738;22;20623;-84
2021/04/03 07:37:42;;;;;;;0.50;0.50;;;4.70;99.90;;;;;;6271989;22;20175;-85
2021/04/03 07:40:14;;;;;;;0.60;0.60;;;4.80;99.90;;;;;;6270996;22;20515;-85
2021/04/03 07:42:41;;;;;;;0.60;0.60;;;5.00;99.90;;;;;;6272460;22;20258;-84
2021/04/03 07:45:42;;;;;;;0.60;0.60;;;5.10;99.90;;;;;;6270905;22;20186;-84
2021/04/03 07:48:14;;;;;;;0.60;0.60;;;5.20;99.90;;;;;;6271868;22;20608;-86
2021/04/03 07:50:50;;;;;;;0.60;0.60;;;5.20;99.90;;;;;;6270854;22;20245;-85
2021/04/03 07:53:33;;;;;;;0.60;0.60;;;5.30;99.90;;;;;;6272569;22;20174;-84
2021/04/03 07:56:01;;;;;;;0.60;0.60;;;5.40;99.90;;;;;;6271730;22;20182;-85
2021/04/03 07:58:29;;;;;;;0.50;0.50;;;5.50;99.90;;;;;;6273644;22;20175;-81
2021/04/03 08:00:56;;;;;;;0.60;0.60;;;5.60;99.90;;;;;;6273125;22;20183;-86
2021/04/03 08:03:29;;;;;;;0.50;0.50;;;5.70;99.90;;;;;;6273167;22;20256;-90
2021/04/03 08:06:03;;;;;;;0.60;0.60;;;5.70;99.90;;;;;;6271486;22;20159;-89
2021/04/03 08:08:31;;;;;;;0.60;0.60;;;5.80;99.90;;;;;;6272824;22;20167;-85
2021/04/03 08:11:10;;;;;;;0.60;0.60;;;6.20;99.90;;;;;;6278682;22;20203;-85
2021/04/03 08:13:40;;;;;;;0.60;0.60;;;6.60;99.90;;;;;;6244907;23;20172;-85
2021/04/03 08:16:07;;;;;;;0.60;0.60;;;6.30;99.90;;;;;;6241257;23;20172;-83
2021/04/03 08:18:41;;;;;;;0.60;0.60;;;6.70;99.90;;;;;;6242026;23;20628;-87
2021/04/03 08:24:25;;;;;;;0.55;0.55;;;8.10;99.90;;;;;;6201567;23;20214;-88
2021/04/03 08:26:53;;;;;;;0.60;0.60;;;6.20;99.90;;;;;;6241358;23;20196;-89
2021/04/03 08:29:22;;;;;;;0.60;0.60;;;7.80;99.90;;;;;;6242334;23;20182;-89
2021/04/03 09:03:05;;;;;;;0.60;0.60;;;7.40;99.90;;;;;;6125365;23;20221;-90
2021/04/03 09:05:49;;;;;;;0.60;0.60;;;10.00;99.90;;;;;;6023545;23;20179;-88
2021/04/03 09:08:20;;;;;;;0.50;0.50;;;10.10;99.90;;;;;;6115510;23;20182;-89
2021/04/03 09:10:58;;;;;;;0.57;0.57;;;9.20;99.90;;;;;;6134056;23;20159;-90
2021/04/03 09:14:09;;;;;;;0.60;0.60;;;8.40;99.90;;;;;;6132309;23;20193;-90
2021/04/03 09:17:00;;;;;;;0.60;0.60;;;10.20;99.90;;;;;;6126544;23;20184;-90
2021/04/03 09:20:16;;;;;;;0.50;0.50;;;10.30;99.90;;;;;;6139124;23;20174;-90
2021/04/03 09:29:17;;;;;;;0.60;0.60;;;8.30;99.90;;;;;;6108868;23;20207;-91
2021/04/03 09:35:03;;;;;;;0.60;0.60;;;8.90;99.90;;;;;;5990237;23;20934;-90
2021/04/03 09:37:29;;;;;;;0.60;0.60;;;10.80;99.90;;;;;;6080644;23;20186;-89
2021/04/03 09:39:57;;;;;;;0.50;0.50;;;8.70;99.90;;;;;;6087977;23;20727;-88
2021/04/03 09:42:25;;;;;;;0.60;0.60;;;9.80;99.90;;;;;;6089497;23;20192;-90
2021/04/03 09:44:54;;;;;;;0.60;0.60;;;9.10;99.90;;;;;;6087513;23;20229;-90
2021/04/03 09:47:23;;;;;;;0.60;0.60;;;11.30;99.90;;;;;;6089273;23;20212;-91
2021/04/03 09:49:54;;;;;;;0.55;0.55;;;11.40;99.90;;;;;;6090278;23;20571;-91
2021/04/03 09:52:21;;;;;;;0.50;0.50;;;8.90;99.90;;;;;;6066425;23;20227;-90
2021/04/03 09:54:48;;;;;;;0.60;0.60;;;10.40;99.90;;;;;;6071308;23;20227;-89
2021/04/03 09:57:17;;;;;;;0.60;0.60;;;8.60;99.90;;;;;;6067495;23;20172;-90
2021/04/03 09:59:44;;;;;;;0.60;0.60;;;9.80;99.90;;;;;;6062522;23;20226;-90
2021/04/03 10:02:14;;;;;;;0.60;0.60;;;9.30;99.90;;;;;;6063722;23;20534;-90
2021/04/03 10:04:40;;;;;;;0.60;0.60;;;10.30;99.90;;;;;;6062742;23;20533;-90
2021/04/03 10:07:08;;;;;;;0.60;0.60;;;9.70;99.90;;;;;;6064844;23;20201;-89
2021/04/03 10:09:37;;;;;;;0.60;0.60;;;9.00;99.90;;;;;;6060157;23;20172;-88
2021/04/03 10:12:11;;;;;;;0.60;0.60;;;11.00;99.90;;;;;;6058543;23;20180;-88
2021/04/03 10:17:27;;;;;;;0.60;0.60;;;9.00;99.90;;;;;;6033000;23;20495;-88
2021/04/03 10:19:54;;;;;;;0.60;0.60;;;8.90;99.90;;;;;;6047901;23;20183;-88
2021/04/03 10:22:22;;;;;;;0.57;0.57;;;10.70;99.90;;;;;;6059252;23;20275;-89
2021/04/03 10:24:54;;;;;;;0.60;0.60;;;9.40;99.90;;;;;;6059468;23;20188;-88
2021/04/03 10:27:23;;;;;;;0.50;0.50;;;9.30;99.90;;;;;;6060528;23;20858;-88
2021/04/03 10:29:54;;;;;;;0.60;0.60;;;9.40;99.90;;;;;;6060014;23;20237;-88
2021/04/03 10:32:21;;;;;;;0.50;0.50;;;9.50;99.90;;;;;;6057100;23;20185;-87
2021/04/03 10:34:47;;;;;;;0.60;0.60;;;9.60;99.90;;;;;;6059049;23;20240;-87
2021/04/03 10:37:13;;;;;;;0.60;0.60;;;11.30;99.90;;;;;;6057340;23;20179;-87
2021/04/03 10:39:39;;;;;;;0.60;0.60;;;9.70;99.90;;;;;;6058347;23;20176;-87
2021/04/03 10:42:07;;;;;;;0.57;0.57;;;9.60;99.90;;;;;;6058550;23;20239;-88
2021/04/03 10:44:33;;;;;;;0.60;0.60;;;10.00;99.90;;;;;;6059386;23;20267;-88
2021/04/03 10:47:00;;;;;;;0.60;0.60;;;9.70;99.90;;;;;;6060033;23;20202;-87
2021/04/03 10:49:28;;;;;;;0.60;0.60;;;9.90;99.90;;;;;;6059452;23;20226;-88
2021/04/03 10:51:54;;;;;;;0.60;0.60;;;10.00;99.90;;;;;;6059937;23;20232;-87
2021/04/03 10:54:22;;;;;;;0.60;0.60;;;11.30;99.90;;;;;;6061056;23;20176;-86
2021/04/03 10:56:48;;;;;;;0.60;0.60;;;9.70;99.90;;;;;;6059446;23;20180;-88
2021/04/03 10:59:15;;;;;;;0.50;0.50;;;10.20;99.90;;;;;;6060274;23;20179;-88
2021/04/03 11:01:41;;;;;;;0.60;0.60;;;10.30;99.90;;;;;;6059346;23;20183;-87
2021/04/03 11:04:09;;;;;;;0.60;0.60;;;11.60;99.90;;;;;;6060502;23;20183;-87
2021/04/03 11:06:37;;;;;;;0.60;0.60;;;10.40;99.90;;;;;;6061061;23;20182;-88
2021/04/03 11:09:04;;;;;;;0.60;0.60;;;12.30;99.90;;;;;;6061964;23;20179;-88
2021/04/03 11:11:31;;;;;;;0.60;0.60;;;9.20;99.90;;;;;;6062258;23;20183;-87
2021/04/03 11:13:58;;;;;;;0.60;0.60;;;10.20;99.90;;;;;;6062980;23;20195;-88
2021/04/03 11:16:26;;;;;;;0.60;0.60;;;10.20;99.90;;;;;;6062403;23;20778;-87
2021/04/03 11:18:52;;;;;;;0.60;0.60;;;12.20;99.90;;;;;;6063037;23;20183;-88
2021/04/03 11:21:20;;;;;;;0.60;0.60;;;10.90;99.90;;;;;;6062082;23;20704;-87
2021/04/03 11:23:48;;;;;;;0.60;0.60;;;10.60;99.90;;;;;;6062780;23;20206;-87
2021/04/03 11:26:16;;;;;;;0.60;0.60;;;11.90;99.90;;;;;;6062275;23;20184;-88
2021/04/03 11:28:43;;;;;;;0.57;0.57;;;11.30;99.90;;;;;;6062149;23;20168;-87
2021/04/03 11:31:18;;;;;;;0.55;0.55;;;10.80;99.90;;;;;;6064009;23;20180;-87
2021/04/03 11:33:47;;;;;;;0.60;0.60;;;11.20;99.90;;;;;;6070198;23;20163;-87
2021/04/03 11:36:13;;;;;;;0.60;0.60;;;9.50;98.20;;;;;;6060777;23;20183;-88
2021/04/03 11:38:40;;;;;;;0.60;0.60;;;9.20;98.90;;;;;;6059431;23;20200;-88
2021/04/03 11:41:06;;;;;;;0.60;0.60;;;10.80;99.90;;;;;;6059376;23;20180;-88
2021/04/03 11:43:33;;;;;;;0.50;0.50;;;12.90;99.90;;;;;;6059577;23;20227;-88
2021/04/03 11:46:01;;;;;;;0.60;0.60;;;12.40;99.90;;;;;;6057029;23;20180;-88
2021/04/03 11:48:27;;;;;;;0.60;0.60;;;12.00;99.60;;;;;;6057984;23;20184;-88
2021/04/03 11:50:54;;;;;;;0.60;0.60;;;11.10;97.10;;;;;;6052491;23;20202;-88
2021/04/03 11:53:20;;;;;;;0.60;0.60;;;12.70;98.80;;;;;;6057573;23;20633;-88
2021/04/03 11:55:48;;;;;;;0.60;0.60;;;11.30;97.10;;;;;;6058310;23;20195;-88
2021/04/03 11:58:14;;;;;;;0.50;0.50;;;11.60;99.90;;;;;;6056893;23;20418;-87
2021/04/03 12:00:40;;;;;;;0.60;0.60;;;11.50;99.10;;;;;;6058020;23;20428;-87
2021/04/03 12:03:07;;;;;;;0.60;0.60;;;11.20;98.00;;;;;;6059155;23;20661;-87
2021/04/03 12:05:34;;;;;;;0.60;0.60;;;11.50;98.30;;;;;;6066373;23;20180;-89
2021/04/03 12:08:00;;;;;;;0.60;0.60;;;11.90;98.10;;;;;;6059412;23;20175;-88
2021/04/03 12:10:26;;;;;;;0.52;0.52;;;11.30;95.20;;;;;;6059845;23;20184;-88
2021/04/03 12:12:53;;;;;;;0.60;0.60;;;11.00;95.80;;;;;;6059762;23;20450;-88
2021/04/03 12:15:20;;;;;;;0.60;0.60;;;11.20;97.50;;;;;;6057406;23;20183;-87
2021/04/03 12:17:46;;;;;;;0.60;0.60;;;12.60;98.50;;;;;;6058365;23;20373;-88
2021/04/03 12:20:16;;;;;;;0.60;0.60;;;11.90;95.50;;;;;;6060207;23;20251;-87
2021/04/03 12:22:43;;;;;;;0.60;0.60;;;13.50;96.90;;;;;;6062666;23;20196;-87
2021/04/03 12:25:10;;;;;;;0.60;0.60;;;13.90;97.80;;;;;;6061187;23;20664;-87
2021/04/03 12:27:36;;;;;;;0.60;0.60;;;12.10;95.00;;;;;;6061113;23;20210;-87
2021/04/03 12:30:05;;;;;;;0.60;0.60;;;12.80;96.20;;;;;;6059593;23;20393;-87
2021/04/03 12:32:32;;;;;;;0.50;0.50;;;11.30;93.80;;;;;;6064660;23;20182;-86
2021/04/03 12:34:58;;;;;;;0.60;0.60;;;11.20;96.80;;;;;;6061589;23;20187;-87
2021/04/03 12:37:25;;;;;;;0.60;0.60;;;13.10;97.80;;;;;;6062176;23;20355;-87
2021/04/03 12:39:51;;;;;;;0.60;0.60;;;11.90;96.80;;;;;;6060840;23;20318;-87
2021/04/03 12:42:17;;;;;;;0.55;0.55;;;13.60;98.20;;;;;;6062764;23;20200;-88
2021/04/03 12:44:44;;;;;;;0.60;0.60;;;12.00;96.30;;;;;;6066581;23;20443;-87
2021/04/03 12:47:11;;;;;;;0.60;0.60;;;12.10;98.30;;;;;;6065744;23;20224;-87
2021/04/03 12:49:37;;;;;;;0.57;0.57;;;12.80;96.90;;;;;;6064999;23;20179;-87
2021/04/03 12:52:04;;;;;;;0.60;0.60;;;11.60;97.50;;;;;;6061732;23;20535;-85
2021/04/03 12:54:31;;;;;;;0.60;0.60;;;11.40;96.60;;;;;;6063191;23;20180;-88
2021/04/03 12:56:57;;;;;;;0.60;0.60;;;11.20;96.50;;;;;;6063499;23;20202;-88
2021/04/03 12:59:23;;;;;;;0.60;0.60;;;11.10;95.80;;;;;;6063689;23;20203;-88
2021/04/03 13:01:50;;;;;;;0.60;0.60;;;11.00;95.40;;;;;;6063426;23;20180;-87
2021/04/03 13:04:17;;;;;;;0.60;0.60;;;11.10;98.40;;;;;;6072022;23;20190;-88
2021/04/03 13:06:43;;;;;;;0.50;0.50;;;11.30;97.60;;;;;;6060632;23;20693;-88
2021/04/03 13:09:10;;;;;;;0.60;0.60;;;11.70;97.40;;;;;;6060532;23;20183;-84
2021/04/03 13:11:36;;;;;;;0.60;0.60;;;12.70;96.40;;;;;;6062949;23;20191;-88
2021/04/03 13:14:03;;;;;;;0.60;0.60;;;11.90;93.90;;;;;;6063317;23;20210;-87
2021/04/03 13:16:32;;;;;;;0.60;0.60;;;12.90;96.10;;;;;;6063840;23;20222;-88
2021/04/03 13:18:58;;;;;;;0.60;0.60;;;11.40;92.60;;;;;;6067530;23;20254;-87
2021/04/03 13:21:26;;;;;;;0.60;0.60;;;12.40;94.20;;;;;;6068364;23;20231;-87
2021/04/03 13:23:52;;;;;;;0.60;0.60;;;11.40;96.20;;;;;;6066237;23;20283;-88
2021/04/03 13:26:18;;;;;;;0.60;0.60;;;11.40;93.90;;;;;;6065600;23;20203;-88
2021/04/03 13:28:47;;;;;;;0.60;0.60;;;13.00;95.60;;;;;;6066164;23;20191;-87
2021/04/03 13:31:14;;;;;;;0.60;0.60;;;11.70;95.50;;;;;;6063094;23;20199;-88
2021/04/03 13:33:40;;;;;;;0.60;0.60;;;11.70;93.80;;;;;;6066035;23;20183;-87
2021/04/03 13:36:07;;;;;;;0.50;0.50;;;11.90;95.00;;;;;;6065985;23;20183;-87
2021/04/03 13:38:34;;;;;;;0.60;0.60;;;12.60;95.10;;;;;;6063971;23;20176;-88
2021/04/03 13:41:01;;;;;;;0.60;0.60;;;12.30;93.30;;;;;;6062628;23;20214;-88
2021/04/03 13:43:27;;;;;;;0.50;0.50;;;11.70;93.20;;;;;;6067244;23;20578;-88
2021/04/03 13:45:54;;;;;;;0.60;0.60;;;12.90;94.80;;;;;;6064499;23;20571;-84
2021/04/03 13:48:20;;;;;;;0.60;0.60;;;11.70;93.60;;;;;;6059518;23;20184;-87
2021/04/03 13:50:46;;;;;;;0.60;0.60;;;12.40;94.10;;;;;;6058608;23;20680;-87